sensor_id;sensor_type;location;lat;lon;timestamp;temperature;humidity
16253;DHT22;8234;41.480;2.306;2023-02-12T00:05:07;5.80;99.90
16253;DHT22;8234;41.480;2.306;2023-02-12T00:15:12;5.60;99.90
16253;DHT22;8234;41.480;2.306;2023-02-12T00:25:16;5.50;99.90
16253;DHT22;8234;41.480;2.306;2023-02-12T00:35:21;5.50;99.90
16253;DHT22;8234;41.480;2.306;2023-02-12T00:45:25;5.30;99.90
16253;DHT22;8234;41.480;2.306;2023-02-12T00:55:30;5.30;99.90
16253;DHT22;8234;41.480;2.306;2023-02-12T01:05:35;5.70;99.90
16253;DHT22;8234;41.480;2.306;2023-02-12T01:15:41;5.60;99.90
16253;DHT22;8234;41.480;2.306;2023-02-12T01:25:45;5.50;99.90
16253;DHT22;8234;41.480;2.306;2023-02-12T01:35:50;5.40;99.90
16253;DHT22;8234;41.480;2.306;2023-02-12T01:45:57;5.40;99.90
16253;DHT22;8234;41.480;2.306;2023-02-12T01:56:03;5.40;99.90
16253;DHT22;8234;41.480;2.306;2023-02-12T02:06:10;5.20;99.90
16253;DHT22;8234;41.480;2.306;2023-02-12T02:16:21;5.00;99.90
16253;DHT22;8234;41.480;2.306;2023-02-12T02:27:04;5.10;99.90
16253;DHT22;8234;41.480;2.306;2023-02-12T02:37:16;5.10;99.90
16253;DHT22;8234;41.480;2.306;2023-02-12T02:47:28;4.80;99.90
16253;DHT22;8234;41.480;2.306;2023-02-12T02:57:40;4.70;99.90
16253;DHT22;8234;41.480;2.306;2023-02-12T03:07:47;4.70;99.90
16253;DHT22;8234;41.480;2.306;2023-02-12T03:17:55;4.50;99.90
16253;DHT22;8234;41.480;2.306;2023-02-12T03:28:05;4.60;99.90
16253;DHT22;8234;41.480;2.306;2023-02-12T03:38:18;4.40;99.90
16253;DHT22;8234;41.480;2.306;2023-02-12T03:48:29;4.40;99.90
16253;DHT22;8234;41.480;2.306;2023-02-12T03:58:37;4.30;99.90
16253;DHT22;8234;41.480;2.306;2023-02-12T04:08:41;4.20;99.90
16253;DHT22;8234;41.480;2.306;2023-02-12T04:18:47;4.70;99.90
16253;DHT22;8234;41.480;2.306;2023-02-12T04:29:01;4.80;99.90
16253;DHT22;8234;41.480;2.306;2023-02-12T04:39:09;4.50;99.90
16253;DHT22;8234;41.480;2.306;2023-02-12T04:49:16;4.20;99.90
16253;DHT22;8234;41.480;2.306;2023-02-12T04:59:22;4.30;99.90
16253;DHT22;8234;41.480;2.306;2023-02-12T05:09:25;4.30;99.90
16253;DHT22;8234;41.480;2.306;2023-02-12T05:19:31;4.40;99.90
16253;DHT22;8234;41.480;2.306;2023-02-12T05:29:35;4.30;99.90
16253;DHT22;8234;41.480;2.306;2023-02-12T05:39:40;4.30;99.90
16253;DHT22;8234;41.480;2.306;2023-02-12T05:49:44;4.60;99.90
16253;DHT22;8234;41.480;2.306;2023-02-12T05:59:49;4.50;99.90
16253;DHT22;8234;41.480;2.306;2023-02-12T06:09:53;4.30;99.90
16253;DHT22;8234;41.480;2.306;2023-02-12T06:19:58;4.40;99.90
16253;DHT22;8234;41.480;2.306;2023-02-12T06:30:03;4.50;99.90
16253;DHT22;8234;41.480;2.306;2023-02-12T06:40:09;4.40;99.90
16253;DHT22;8234;41.480;2.306;2023-02-12T06:50:13;4.30;99.90
16253;DHT22;8234;41.480;2.306;2023-02-12T07:00:19;4.20;99.90
16253;DHT22;8234;41.480;2.306;2023-02-12T07:10:23;4.20;99.90
16253;DHT22;8234;41.480;2.306;2023-02-12T07:20:28;4.30;99.90
16253;DHT22;8234;41.480;2.306;2023-02-12T07:30:32;4.50;99.90
16253;DHT22;8234;41.480;2.306;2023-02-12T07:40:37;4.90;99.90
16253;DHT22;8234;41.480;2.306;2023-02-12T07:50:41;5.30;99.90
16253;DHT22;8234;41.480;2.306;2023-02-12T08:00:46;5.80;99.90
16253;DHT22;8234;41.480;2.306;2023-02-12T08:10:50;6.20;99.90
16253;DHT22;8234;41.480;2.306;2023-02-12T08:21:00;6.50;99.90
16253;DHT22;8234;41.480;2.306;2023-02-12T08:31:07;7.30;99.90
16253;DHT22;8234;41.480;2.306;2023-02-12T08:41:14;8.00;99.90
16253;DHT22;8234;41.480;2.306;2023-02-12T08:51:24;8.40;99.90
16253;DHT22;8234;41.480;2.306;2023-02-12T09:01:31;8.90;99.90
16253;DHT22;8234;41.480;2.306;2023-02-12T09:11:35;9.80;99.90
16253;DHT22;8234;41.480;2.306;2023-02-12T09:21:41;10.40;99.90
16253;DHT22;8234;41.480;2.306;2023-02-12T09:31:44;10.50;99.90
16253;DHT22;8234;41.480;2.306;2023-02-12T09:42:01;10.80;99.90
16253;DHT22;8234;41.480;2.306;2023-02-12T09:52:13;11.10;99.90
16253;DHT22;8234;41.480;2.306;2023-02-12T10:02:21;11.30;99.90
16253;DHT22;8234;41.480;2.306;2023-02-12T10:12:30;11.60;99.90
16253;DHT22;8234;41.480;2.306;2023-02-12T10:22:44;12.00;99.90
16253;DHT22;8234;41.480;2.306;2023-02-12T10:33:01;12.40;99.90
16253;DHT22;8234;41.480;2.306;2023-02-12T10:43:10;13.00;99.90
16253;DHT22;8234;41.480;2.306;2023-02-12T10:53:19;12.90;99.90
16253;DHT22;8234;41.480;2.306;2023-02-12T11:03:29;13.70;99.90
16253;DHT22;8234;41.480;2.306;2023-02-12T11:13:36;14.10;99.90
16253;DHT22;8234;41.480;2.306;2023-02-12T11:23:43;14.50;99.90
16253;DHT22;8234;41.480;2.306;2023-02-12T11:34:07;15.40;99.90
16253;DHT22;8234;41.480;2.306;2023-02-12T11:44:18;15.00;99.90
16253;DHT22;8234;41.480;2.306;2023-02-12T11:54:25;15.30;99.90
16253;DHT22;8234;41.480;2.306;2023-02-12T12:04:32;15.80;99.90
16253;DHT22;8234;41.480;2.306;2023-02-12T12:14:43;16.60;99.90
16253;DHT22;8234;41.480;2.306;2023-02-12T12:25:15;16.60;99.90
16253;DHT22;8234;41.480;2.306;2023-02-12T12:35:28;16.90;99.90
16253;DHT22;8234;41.480;2.306;2023-02-12T12:46:02;17.30;99.90
16253;DHT22;8234;41.480;2.306;2023-02-12T12:56:26;17.40;99.90
16253;DHT22;8234;41.480;2.306;2023-02-12T13:06:56;17.40;99.90
16253;DHT22;8234;41.480;2.306;2023-02-12T13:17:09;18.00;99.90
16253;DHT22;8234;41.480;2.306;2023-02-12T13:27:21;18.10;99.90
16253;DHT22;8234;41.480;2.306;2023-02-12T13:37:37;17.50;99.90
16253;DHT22;8234;41.480;2.306;2023-02-12T13:47:50;17.20;99.90
16253;DHT22;8234;41.480;2.306;2023-02-12T14:08:41;17.80;99.90
16253;DHT22;8234;41.480;2.306;2023-02-12T14:18:46;18.40;99.90
16253;DHT22;8234;41.480;2.306;2023-02-12T14:28:54;18.60;99.90
16253;DHT22;8234;41.480;2.306;2023-02-12T14:39:03;19.20;99.90
16253;DHT22;8234;41.480;2.306;2023-02-12T14:49:18;18.90;99.90
16253;DHT22;8234;41.480;2.306;2023-02-12T14:59:25;19.20;99.90
16253;DHT22;8234;41.480;2.306;2023-02-12T15:09:36;18.80;99.90
16253;DHT22;8234;41.480;2.306;2023-02-12T15:19:43;19.60;99.90
16253;DHT22;8234;41.480;2.306;2023-02-12T15:29:53;19.50;99.90
16253;DHT22;8234;41.480;2.306;2023-02-12T15:39:59;18.90;99.90
16253;DHT22;8234;41.480;2.306;2023-02-12T15:50:10;17.30;99.90
16253;DHT22;8234;41.480;2.306;2023-02-12T16:00:26;16.10;99.90
16253;DHT22;8234;41.480;2.306;2023-02-12T16:10:31;16.10;99.90
16253;DHT22;8234;41.480;2.306;2023-02-12T16:20:35;16.20;99.90
16253;DHT22;8234;41.480;2.306;2023-02-12T16:30:42;15.80;99.90
16253;DHT22;8234;41.480;2.306;2023-02-12T16:41:17;14.80;99.90
16253;DHT22;8234;41.480;2.306;2023-02-12T16:51:25;13.90;99.90
16253;DHT22;8234;41.480;2.306;2023-02-12T17:01:31;12.80;99.90
16253;DHT22;8234;41.480;2.306;2023-02-12T17:11:37;12.40;99.90
16253;DHT22;8234;41.480;2.306;2023-02-12T17:21:43;12.00;99.90
16253;DHT22;8234;41.480;2.306;2023-02-12T17:31:49;11.70;99.90
16253;DHT22;8234;41.480;2.306;2023-02-12T17:41:55;11.50;99.90
16253;DHT22;8234;41.480;2.306;2023-02-12T17:52:02;11.30;99.90
16253;DHT22;8234;41.480;2.306;2023-02-12T18:02:10;11.20;99.90
16253;DHT22;8234;41.480;2.306;2023-02-12T18:12:15;10.80;99.90
16253;DHT22;8234;41.480;2.306;2023-02-12T18:22:20;10.00;99.90
16253;DHT22;8234;41.480;2.306;2023-02-12T18:32:26;9.00;99.90
16253;DHT22;8234;41.480;2.306;2023-02-12T18:42:30;8.70;99.90
16253;DHT22;8234;41.480;2.306;2023-02-12T18:52:36;8.50;99.90
16253;DHT22;8234;41.480;2.306;2023-02-12T19:02:40;8.30;99.90
16253;DHT22;8234;41.480;2.306;2023-02-12T19:12:46;8.00;99.90
16253;DHT22;8234;41.480;2.306;2023-02-12T19:22:50;7.80;99.90
16253;DHT22;8234;41.480;2.306;2023-02-12T19:32:55;7.60;99.90
16253;DHT22;8234;41.480;2.306;2023-02-12T19:42:59;7.40;99.90
16253;DHT22;8234;41.480;2.306;2023-02-12T19:53:04;7.30;99.90
16253;DHT22;8234;41.480;2.306;2023-02-12T20:03:09;7.30;99.90
16253;DHT22;8234;41.480;2.306;2023-02-12T20:13:16;7.00;99.90
16253;DHT22;8234;41.480;2.306;2023-02-12T20:23:23;6.90;99.90
16253;DHT22;8234;41.480;2.306;2023-02-12T20:33:29;6.90;99.90
16253;DHT22;8234;41.480;2.306;2023-02-12T20:43:33;6.70;99.90
16253;DHT22;8234;41.480;2.306;2023-02-12T20:53:40;6.60;99.90
16253;DHT22;8234;41.480;2.306;2023-02-12T21:03:44;6.60;99.90
16253;DHT22;8234;41.480;2.306;2023-02-12T21:13:52;6.60;99.90
16253;DHT22;8234;41.480;2.306;2023-02-12T21:24:19;6.50;99.90
16253;DHT22;8234;41.480;2.306;2023-02-12T21:34:26;6.10;99.90
16253;DHT22;8234;41.480;2.306;2023-02-12T21:44:32;6.00;99.90
16253;DHT22;8234;41.480;2.306;2023-02-12T21:54:38;6.10;99.90
16253;DHT22;8234;41.480;2.306;2023-02-12T22:04:42;6.30;99.90
16253;DHT22;8234;41.480;2.306;2023-02-12T22:14:48;6.10;99.90
16253;DHT22;8234;41.480;2.306;2023-02-12T22:24:52;6.50;99.90
16253;DHT22;8234;41.480;2.306;2023-02-12T22:34:57;6.40;99.90
16253;DHT22;8234;41.480;2.306;2023-02-12T22:45:01;6.40;99.90
16253;DHT22;8234;41.480;2.306;2023-02-12T22:55:07;6.90;99.90
16253;DHT22;8234;41.480;2.306;2023-02-12T23:05:11;6.70;99.90
16253;DHT22;8234;41.480;2.306;2023-02-12T23:15:16;6.80;99.90
16253;DHT22;8234;41.480;2.306;2023-02-12T23:25:20;6.90;99.90
16253;DHT22;8234;41.480;2.306;2023-02-12T23:35:26;6.60;99.90
16253;DHT22;8234;41.480;2.306;2023-02-12T23:45:30;6.10;99.90
16253;DHT22;8234;41.480;2.306;2023-02-12T23:55:36;6.10;99.90
